Academia, Pennsylvania
Current Conditions -  °F | °C
As of 4:35 AM on Friday 28 Nov 2014 (Local Time) from KUNV Reporting Station
Scattered Clouds Scattered Clouds  
Wind Chill: 20°   Ceiling: Unl
Heat Index: 28°   Visibility: 10mi
Dew Point: 18°   Wind: 8mph
Humidity: 67%   Direction: 300°WNW
Pressure: 30.15"   Gusts: NA
Location:  40.4991°N, 77.4687°W
Report Text: KUNV 280935Z AUTO 30007KT 10SM SCT033 M02/M08 A3015 RMK AO2 T10231076
Loading
Personal Weather Stations






























Interactive Weather Map New forecast layout! Learn more

10-Day Weather Forecast

Advertisements
Track Severe Weather on mobile